sensor_id;sensor_type;location;lat;lon;timestamp;P1;durP1;ratioP1;P2;durP2;ratioP2
56116;SDS011;41989;45.356;20.392;2023-05-23T00:00:53;15.30;;;13.02;;
56116;SDS011;41989;45.356;20.392;2023-05-23T00:03:19;15.30;;;13.70;;
56116;SDS011;41989;45.356;20.392;2023-05-23T00:05:47;19.30;;;13.15;;
56116;SDS011;41989;45.356;20.392;2023-05-23T00:08:13;18.65;;;13.70;;
56116;SDS011;41989;45.356;20.392;2023-05-23T00:10:40;17.30;;;13.68;;
56116;SDS011;41989;45.356;20.392;2023-05-23T00:13:06;14.73;;;11.93;;
56116;SDS011;41989;45.356;20.392;2023-05-23T00:15:39;12.82;;;10.52;;
56116;SDS011;41989;45.356;20.392;2023-05-23T00:18:05;16.13;;;12.05;;
56116;SDS011;41989;45.356;20.392;2023-05-23T00:20:33;18.60;;;12.55;;
56116;SDS011;41989;45.356;20.392;2023-05-23T00:23:00;19.40;;;12.82;;
56116;SDS011;41989;45.356;20.392;2023-05-23T00:25:27;20.38;;;12.10;;
56116;SDS011;41989;45.356;20.392;2023-05-23T00:27:59;14.88;;;11.65;;
56116;SDS011;41989;45.356;20.392;2023-05-23T00:30:34;17.10;;;12.95;;
56116;SDS011;41989;45.356;20.392;2023-05-23T00:33:03;20.08;;;13.27;;
56116;SDS011;41989;45.356;20.392;2023-05-23T00:35:29;16.42;;;11.95;;
56116;SDS011;41989;45.356;20.392;2023-05-23T00:37:55;17.42;;;10.48;;
56116;SDS011;41989;45.356;20.392;2023-05-23T00:40:21;16.05;;;11.32;;
56116;SDS011;41989;45.356;20.392;2023-05-23T00:42:47;17.13;;;11.70;;
56116;SDS011;41989;45.356;20.392;2023-05-23T00:45:14;17.02;;;11.00;;
56116;SDS011;41989;45.356;20.392;2023-05-23T00:47:41;17.48;;;11.02;;
56116;SDS011;41989;45.356;20.392;2023-05-23T00:50:08;16.98;;;11.10;;
56116;SDS011;41989;45.356;20.392;2023-05-23T00:52:35;21.58;;;12.20;;
56116;SDS011;41989;45.356;20.392;2023-05-23T00:55:01;17.23;;;10.60;;
56116;SDS011;41989;45.356;20.392;2023-05-23T00:57:30;15.50;;;10.38;;
56116;SDS011;41989;45.356;20.392;2023-05-23T00:59:59;18.38;;;11.88;;
56116;SDS011;41989;45.356;20.392;2023-05-23T01:02:25;18.27;;;10.98;;
56116;SDS011;41989;45.356;20.392;2023-05-23T01:04:52;18.45;;;11.95;;
56116;SDS011;41989;45.356;20.392;2023-05-23T01:07:19;20.92;;;13.60;;
56116;SDS011;41989;45.356;20.392;2023-05-23T01:09:45;14.20;;;11.60;;
56116;SDS011;41989;45.356;20.392;2023-05-23T01:12:17;18.98;;;11.68;;
56116;SDS011;41989;45.356;20.392;2023-05-23T01:17:33;20.77;;;12.85;;
56116;SDS011;41989;45.356;20.392;2023-05-23T01:20:10;19.27;;;13.10;;
56116;SDS011;41989;45.356;20.392;2023-05-23T01:22:41;16.52;;;11.75;;
56116;SDS011;41989;45.356;20.392;2023-05-23T01:27:56;25.27;;;14.82;;
56116;SDS011;41989;45.356;20.392;2023-05-23T01:30:25;16.83;;;11.90;;
56116;SDS011;41989;45.356;20.392;2023-05-23T01:32:55;16.30;;;12.05;;
56116;SDS011;41989;45.356;20.392;2023-05-23T01:35:23;20.05;;;13.93;;
56116;SDS011;41989;45.356;20.392;2023-05-23T01:37:56;17.45;;;14.00;;
56116;SDS011;41989;45.356;20.392;2023-05-23T01:40:23;18.30;;;13.02;;
56116;SDS011;41989;45.356;20.392;2023-05-23T01:42:49;13.68;;;10.73;;
56116;SDS011;41989;45.356;20.392;2023-05-23T01:45:15;13.93;;;11.50;;
56116;SDS011;41989;45.356;20.392;2023-05-23T01:47:42;16.40;;;11.65;;
56116;SDS011;41989;45.356;20.392;2023-05-23T01:50:09;16.85;;;12.27;;
56116;SDS011;41989;45.356;20.392;2023-05-23T01:52:35;18.20;;;12.45;;
56116;SDS011;41989;45.356;20.392;2023-05-23T01:55:04;17.92;;;12.40;;
56116;SDS011;41989;45.356;20.392;2023-05-23T01:57:34;16.58;;;12.93;;
56116;SDS011;41989;45.356;20.392;2023-05-23T02:00:02;17.20;;;10.88;;
56116;SDS011;41989;45.356;20.392;2023-05-23T02:02:30;19.15;;;11.77;;
56116;SDS011;41989;45.356;20.392;2023-05-23T02:04:56;21.45;;;13.27;;
56116;SDS011;41989;45.356;20.392;2023-05-23T02:07:25;18.05;;;10.50;;
56116;SDS011;41989;45.356;20.392;2023-05-23T02:09:51;18.73;;;12.05;;
56116;SDS011;41989;45.356;20.392;2023-05-23T02:12:17;13.75;;;10.98;;
56116;SDS011;41989;45.356;20.392;2023-05-23T02:14:43;13.32;;;11.10;;
56116;SDS011;41989;45.356;20.392;2023-05-23T02:17:09;17.67;;;13.23;;
56116;SDS011;41989;45.356;20.392;2023-05-23T02:19:36;18.35;;;13.70;;
56116;SDS011;41989;45.356;20.392;2023-05-23T02:22:02;22.67;;;13.77;;
56116;SDS011;41989;45.356;20.392;2023-05-23T02:24:28;25.65;;;17.85;;
56116;SDS011;41989;45.356;20.392;2023-05-23T02:26:54;20.83;;;12.88;;
56116;SDS011;41989;45.356;20.392;2023-05-23T02:29:21;22.75;;;14.68;;
56116;SDS011;41989;45.356;20.392;2023-05-23T02:31:47;20.50;;;14.05;;
56116;SDS011;41989;45.356;20.392;2023-05-23T02:34:13;22.42;;;13.45;;
56116;SDS011;41989;45.356;20.392;2023-05-23T02:36:39;16.67;;;12.63;;
56116;SDS011;41989;45.356;20.392;2023-05-23T02:39:05;17.70;;;12.63;;
56116;SDS011;41989;45.356;20.392;2023-05-23T02:41:31;16.23;;;11.52;;
56116;SDS011;41989;45.356;20.392;2023-05-23T02:43:58;17.95;;;14.27;;
56116;SDS011;41989;45.356;20.392;2023-05-23T02:46:24;15.13;;;13.00;;
56116;SDS011;41989;45.356;20.392;2023-05-23T02:48:50;18.92;;;12.70;;
56116;SDS011;41989;45.356;20.392;2023-05-23T02:51:16;20.65;;;11.35;;
56116;SDS011;41989;45.356;20.392;2023-05-23T02:53:42;22.10;;;12.98;;
56116;SDS011;41989;45.356;20.392;2023-05-23T02:56:08;15.98;;;13.05;;
56116;SDS011;41989;45.356;20.392;2023-05-23T02:58:35;17.63;;;13.55;;
56116;SDS011;41989;45.356;20.392;2023-05-23T03:01:02;19.05;;;12.50;;
56116;SDS011;41989;45.356;20.392;2023-05-23T03:03:28;20.00;;;14.43;;
56116;SDS011;41989;45.356;20.392;2023-05-23T03:06:00;21.30;;;12.18;;
56116;SDS011;41989;45.356;20.392;2023-05-23T03:08:27;16.27;;;11.65;;
56116;SDS011;41989;45.356;20.392;2023-05-23T03:10:53;17.20;;;12.07;;
56116;SDS011;41989;45.356;20.392;2023-05-23T03:13:19;22.25;;;13.55;;
56116;SDS011;41989;45.356;20.392;2023-05-23T03:15:45;18.08;;;12.65;;
56116;SDS011;41989;45.356;20.392;2023-05-23T03:18:11;19.20;;;10.50;;
56116;SDS011;41989;45.356;20.392;2023-05-23T03:20:38;15.45;;;11.05;;
56116;SDS011;41989;45.356;20.392;2023-05-23T03:23:04;23.00;;;12.35;;
56116;SDS011;41989;45.356;20.392;2023-05-23T03:25:30;21.98;;;14.98;;
56116;SDS011;41989;45.356;20.392;2023-05-23T03:27:56;22.35;;;13.30;;
56116;SDS011;41989;45.356;20.392;2023-05-23T03:30:22;44.00;;;16.55;;
56116;SDS011;41989;45.356;20.392;2023-05-23T03:32:48;28.75;;;17.00;;
56116;SDS011;41989;45.356;20.392;2023-05-23T03:35:14;26.23;;;17.40;;
56116;SDS011;41989;45.356;20.392;2023-05-23T03:37:40;26.92;;;17.45;;
56116;SDS011;41989;45.356;20.392;2023-05-23T03:40:07;24.50;;;18.55;;
56116;SDS011;41989;45.356;20.392;2023-05-23T03:42:33;24.20;;;17.67;;
56116;SDS011;41989;45.356;20.392;2023-05-23T03:44:59;23.52;;;16.05;;
56116;SDS011;41989;45.356;20.392;2023-05-23T03:47:25;27.00;;;18.73;;
56116;SDS011;41989;45.356;20.392;2023-05-23T03:49:51;26.92;;;18.13;;
56116;SDS011;41989;45.356;20.392;2023-05-23T03:52:18;27.92;;;18.65;;
56116;SDS011;41989;45.356;20.392;2023-05-23T03:54:44;22.67;;;16.88;;
56116;SDS011;41989;45.356;20.392;2023-05-23T03:57:10;21.30;;;17.73;;
56116;SDS011;41989;45.356;20.392;2023-05-23T03:59:39;24.85;;;18.67;;
56116;SDS011;41989;45.356;20.392;2023-05-23T04:02:05;20.25;;;17.05;;
56116;SDS011;41989;45.356;20.392;2023-05-23T04:04:31;23.35;;;18.17;;
56116;SDS011;41989;45.356;20.392;2023-05-23T04:06:57;20.67;;;17.58;;
56116;SDS011;41989;45.356;20.392;2023-05-23T04:09:24;24.95;;;18.02;;
56116;SDS011;41989;45.356;20.392;2023-05-23T04:11:50;20.33;;;14.73;;
56116;SDS011;41989;45.356;20.392;2023-05-23T04:14:16;20.80;;;14.88;;
56116;SDS011;41989;45.356;20.392;2023-05-23T04:16:44;21.55;;;14.52;;
56116;SDS011;41989;45.356;20.392;2023-05-23T04:19:13;25.15;;;13.35;;
56116;SDS011;41989;45.356;20.392;2023-05-23T04:21:40;20.63;;;15.25;;
56116;SDS011;41989;45.356;20.392;2023-05-23T04:24:06;20.63;;;13.38;;
56116;SDS011;41989;45.356;20.392;2023-05-23T04:26:38;25.95;;;15.07;;
56116;SDS011;41989;45.356;20.392;2023-05-23T04:29:04;19.80;;;13.32;;
56116;SDS011;41989;45.356;20.392;2023-05-23T04:31:30;16.98;;;12.13;;
56116;SDS011;41989;45.356;20.392;2023-05-23T04:33:57;18.30;;;13.93;;
56116;SDS011;41989;45.356;20.392;2023-05-23T04:36:24;24.58;;;12.32;;
56116;SDS011;41989;45.356;20.392;2023-05-23T04:38:50;23.35;;;15.85;;
56116;SDS011;41989;45.356;20.392;2023-05-23T04:41:19;21.45;;;14.85;;
56116;SDS011;41989;45.356;20.392;2023-05-23T04:43:47;29.27;;;21.35;;
56116;SDS011;41989;45.356;20.392;2023-05-23T04:46:18;20.75;;;18.10;;
56116;SDS011;41989;45.356;20.392;2023-05-23T04:48:50;23.05;;;17.83;;
56116;SDS011;41989;45.356;20.392;2023-05-23T04:51:16;26.27;;;18.25;;
56116;SDS011;41989;45.356;20.392;2023-05-23T04:53:42;25.42;;;18.40;;
56116;SDS011;41989;45.356;20.392;2023-05-23T04:56:08;24.15;;;17.85;;
56116;SDS011;41989;45.356;20.392;2023-05-23T04:58:34;22.23;;;16.63;;
56116;SDS011;41989;45.356;20.392;2023-05-23T05:01:00;19.65;;;15.77;;
56116;SDS011;41989;45.356;20.392;2023-05-23T05:03:26;17.60;;;15.80;;
56116;SDS011;41989;45.356;20.392;2023-05-23T05:05:52;22.27;;;16.73;;
56116;SDS011;41989;45.356;20.392;2023-05-23T05:08:19;17.80;;;13.90;;
56116;SDS011;41989;45.356;20.392;2023-05-23T05:10:45;20.30;;;15.07;;
56116;SDS011;41989;45.356;20.392;2023-05-23T05:13:11;15.02;;;12.80;;
56116;SDS011;41989;45.356;20.392;2023-05-23T05:15:37;16.58;;;12.35;;
56116;SDS011;41989;45.356;20.392;2023-05-23T05:18:03;19.33;;;12.02;;
56116;SDS011;41989;45.356;20.392;2023-05-23T05:20:29;16.60;;;11.23;;
56116;SDS011;41989;45.356;20.392;2023-05-23T05:22:56;15.23;;;11.27;;
56116;SDS011;41989;45.356;20.392;2023-05-23T05:25:22;14.23;;;10.35;;
56116;SDS011;41989;45.356;20.392;2023-05-23T05:27:48;14.82;;;10.60;;
56116;SDS011;41989;45.356;20.392;2023-05-23T05:30:15;11.98;;;9.32;;
56116;SDS011;41989;45.356;20.392;2023-05-23T05:32:41;11.82;;;9.32;;
56116;SDS011;41989;45.356;20.392;2023-05-23T05:35:10;12.98;;;9.07;;
56116;SDS011;41989;45.356;20.392;2023-05-23T05:37:39;12.95;;;9.10;;
56116;SDS011;41989;45.356;20.392;2023-05-23T05:40:06;11.68;;;9.40;;
56116;SDS011;41989;45.356;20.392;2023-05-23T05:42:32;14.75;;;8.90;;
56116;SDS011;41989;45.356;20.392;2023-05-23T05:44:58;11.70;;;7.85;;
56116;SDS011;41989;45.356;20.392;2023-05-23T05:47:24;12.32;;;9.45;;
56116;SDS011;41989;45.356;20.392;2023-05-23T05:49:51;19.27;;;10.35;;
56116;SDS011;41989;45.356;20.392;2023-05-23T05:52:17;9.50;;;8.20;;
56116;SDS011;41989;45.356;20.392;2023-05-23T05:54:43;10.30;;;7.80;;
56116;SDS011;41989;45.356;20.392;2023-05-23T05:57:09;10.75;;;8.80;;
56116;SDS011;41989;45.356;20.392;2023-05-23T05:59:35;13.00;;;9.43;;
56116;SDS011;41989;45.356;20.392;2023-05-23T06:02:01;11.77;;;8.60;;
56116;SDS011;41989;45.356;20.392;2023-05-23T06:04:27;13.60;;;8.80;;
56116;SDS011;41989;45.356;20.392;2023-05-23T06:06:53;12.63;;;7.72;;
56116;SDS011;41989;45.356;20.392;2023-05-23T06:09:19;11.35;;;8.35;;
56116;SDS011;41989;45.356;20.392;2023-05-23T06:11:46;11.65;;;8.35;;
56116;SDS011;41989;45.356;20.392;2023-05-23T06:14:12;13.35;;;8.07;;
56116;SDS011;41989;45.356;20.392;2023-05-23T06:16:38;12.70;;;7.90;;
56116;SDS011;41989;45.356;20.392;2023-05-23T06:19:04;10.18;;;8.32;;
56116;SDS011;41989;45.356;20.392;2023-05-23T06:21:30;17.05;;;8.48;;
56116;SDS011;41989;45.356;20.392;2023-05-23T06:23:56;14.20;;;8.70;;
56116;SDS011;41989;45.356;20.392;2023-05-23T06:26:22;10.63;;;9.13;;
56116;SDS011;41989;45.356;20.392;2023-05-23T06:28:48;11.00;;;8.40;;
56116;SDS011;41989;45.356;20.392;2023-05-23T06:31:15;12.35;;;8.88;;
56116;SDS011;41989;45.356;20.392;2023-05-23T06:33:41;10.70;;;8.43;;
56116;SDS011;41989;45.356;20.392;2023-05-23T06:36:07;12.23;;;9.85;;
56116;SDS011;41989;45.356;20.392;2023-05-23T06:38:33;12.25;;;11.00;;
56116;SDS011;41989;45.356;20.392;2023-05-23T06:41:05;10.15;;;9.07;;
56116;SDS011;41989;45.356;20.392;2023-05-23T06:43:31;11.63;;;8.75;;
56116;SDS011;41989;45.356;20.392;2023-05-23T06:45:57;10.32;;;9.10;;
56116;SDS011;41989;45.356;20.392;2023-05-23T06:48:23;10.57;;;8.73;;
56116;SDS011;41989;45.356;20.392;2023-05-23T06:50:49;11.35;;;8.98;;
56116;SDS011;41989;45.356;20.392;2023-05-23T06:53:16;12.02;;;8.73;;
56116;SDS011;41989;45.356;20.392;2023-05-23T06:55:42;12.82;;;9.07;;
56116;SDS011;41989;45.356;20.392;2023-05-23T06:58:08;14.02;;;9.30;;
56116;SDS011;41989;45.356;20.392;2023-05-23T07:00:35;13.45;;;8.40;;
56116;SDS011;41989;45.356;20.392;2023-05-23T07:03:02;8.13;;;7.28;;
56116;SDS011;41989;45.356;20.392;2023-05-23T07:05:28;13.52;;;7.50;;
56116;SDS011;41989;45.356;20.392;2023-05-23T07:07:54;11.48;;;8.05;;
56116;SDS011;41989;45.356;20.392;2023-05-23T07:10:20;10.30;;;9.05;;
56116;SDS011;41989;45.356;20.392;2023-05-23T07:12:47;9.27;;;7.57;;
56116;SDS011;41989;45.356;20.392;2023-05-23T07:15:13;12.23;;;7.63;;
56116;SDS011;41989;45.356;20.392;2023-05-23T07:17:40;11.93;;;8.98;;
56116;SDS011;41989;45.356;20.392;2023-05-23T07:20:06;8.90;;;8.00;;
56116;SDS011;41989;45.356;20.392;2023-05-23T07:22:32;10.40;;;7.95;;
56116;SDS011;41989;45.356;20.392;2023-05-23T07:24:58;12.65;;;7.40;;
56116;SDS011;41989;45.356;20.392;2023-05-23T07:27:27;7.75;;;6.20;;
56116;SDS011;41989;45.356;20.392;2023-05-23T07:29:53;8.27;;;7.05;;
56116;SDS011;41989;45.356;20.392;2023-05-23T07:32:21;8.73;;;7.30;;
56116;SDS011;41989;45.356;20.392;2023-05-23T07:34:47;9.07;;;6.68;;
56116;SDS011;41989;45.356;20.392;2023-05-23T07:37:13;10.38;;;7.72;;
56116;SDS011;41989;45.356;20.392;2023-05-23T07:39:40;9.27;;;7.72;;
56116;SDS011;41989;45.356;20.392;2023-05-23T07:42:06;11.95;;;8.32;;
56116;SDS011;41989;45.356;20.392;2023-05-23T07:44:32;14.10;;;7.00;;
56116;SDS011;41989;45.356;20.392;2023-05-23T07:46:58;11.13;;;7.28;;
56116;SDS011;41989;45.356;20.392;2023-05-23T07:49:24;9.20;;;7.85;;
56116;SDS011;41989;45.356;20.392;2023-05-23T07:51:50;9.27;;;7.43;;
56116;SDS011;41989;45.356;20.392;2023-05-23T07:54:17;10.27;;;7.40;;
56116;SDS011;41989;45.356;20.392;2023-05-23T07:56:43;9.80;;;6.45;;
56116;SDS011;41989;45.356;20.392;2023-05-23T07:59:09;8.35;;;6.13;;
56116;SDS011;41989;45.356;20.392;2023-05-23T08:01:37;11.95;;;6.03;;
56116;SDS011;41989;45.356;20.392;2023-05-23T08:04:04;9.02;;;6.57;;
56116;SDS011;41989;45.356;20.392;2023-05-23T08:06:30;9.65;;;6.75;;
56116;SDS011;41989;45.356;20.392;2023-05-23T08:08:57;11.00;;;6.07;;
56116;SDS011;41989;45.356;20.392;2023-05-23T08:11:23;8.07;;;6.10;;
56116;SDS011;41989;45.356;20.392;2023-05-23T08:13:50;9.15;;;6.93;;
56116;SDS011;41989;45.356;20.392;2023-05-23T08:16:19;7.18;;;5.97;;
56116;SDS011;41989;45.356;20.392;2023-05-23T08:18:45;7.97;;;5.93;;
56116;SDS011;41989;45.356;20.392;2023-05-23T08:21:11;10.95;;;5.43;;
56116;SDS011;41989;45.356;20.392;2023-05-23T08:23:39;10.60;;;5.60;;
56116;SDS011;41989;45.356;20.392;2023-05-23T08:26:08;7.03;;;5.10;;
56116;SDS011;41989;45.356;20.392;2023-05-23T08:28:34;9.35;;;5.90;;
56116;SDS011;41989;45.356;20.392;2023-05-23T08:31:00;7.63;;;4.80;;
56116;SDS011;41989;45.356;20.392;2023-05-23T08:33:26;14.48;;;7.10;;
56116;SDS011;41989;45.356;20.392;2023-05-23T08:35:52;5.88;;;4.50;;
56116;SDS011;41989;45.356;20.392;2023-05-23T08:38:18;37.25;;;15.05;;
56116;SDS011;41989;45.356;20.392;2023-05-23T08:40:48;11.15;;;7.30;;
56116;SDS011;41989;45.356;20.392;2023-05-23T08:43:15;25.23;;;11.52;;
56116;SDS011;41989;45.356;20.392;2023-05-23T08:45:41;9.35;;;4.95;;
56116;SDS011;41989;45.356;20.392;2023-05-23T08:48:11;8.68;;;5.28;;
56116;SDS011;41989;45.356;20.392;2023-05-23T08:50:39;22.75;;;9.70;;
56116;SDS011;41989;45.356;20.392;2023-05-23T08:53:06;11.68;;;5.22;;
56116;SDS011;41989;45.356;20.392;2023-05-23T08:55:34;15.27;;;6.90;;
56116;SDS011;41989;45.356;20.392;2023-05-23T08:58:02;11.73;;;4.82;;
56116;SDS011;41989;45.356;20.392;2023-05-23T09:00:29;9.50;;;4.63;;
56116;SDS011;41989;45.356;20.392;2023-05-23T09:02:56;6.20;;;4.43;;
56116;SDS011;41989;45.356;20.392;2023-05-23T09:05:22;7.53;;;4.50;;
56116;SDS011;41989;45.356;20.392;2023-05-23T09:07:48;7.90;;;5.22;;
56116;SDS011;41989;45.356;20.392;2023-05-23T09:10:17;6.97;;;5.30;;
56116;SDS011;41989;45.356;20.392;2023-05-23T09:12:44;7.47;;;5.15;;
56116;SDS011;41989;45.356;20.392;2023-05-23T09:15:11;8.25;;;6.13;;
56116;SDS011;41989;45.356;20.392;2023-05-23T09:17:37;9.90;;;5.85;;
56116;SDS011;41989;45.356;20.392;2023-05-23T09:20:10;7.47;;;5.10;;
56116;SDS011;41989;45.356;20.392;2023-05-23T09:22:38;8.30;;;4.93;;
56116;SDS011;41989;45.356;20.392;2023-05-23T09:25:04;7.22;;;4.63;;
56116;SDS011;41989;45.356;20.392;2023-05-23T09:27:30;6.32;;;4.70;;
56116;SDS011;41989;45.356;20.392;2023-05-23T09:29:56;9.73;;;4.45;;
56116;SDS011;41989;45.356;20.392;2023-05-23T09:32:22;7.53;;;4.07;;
56116;SDS011;41989;45.356;20.392;2023-05-23T09:34:56;8.77;;;4.68;;
56116;SDS011;41989;45.356;20.392;2023-05-23T09:39:57;6.40;;;3.97;;
56116;SDS011;41989;45.356;20.392;2023-05-23T09:42:23;7.20;;;3.88;;
56116;SDS011;41989;45.356;20.392;2023-05-23T09:44:49;8.38;;;3.70;;
56116;SDS011;41989;45.356;20.392;2023-05-23T09:47:16;7.13;;;3.35;;
56116;SDS011;41989;45.356;20.392;2023-05-23T09:49:42;5.40;;;3.30;;
56116;SDS011;41989;45.356;20.392;2023-05-23T09:52:09;6.53;;;3.15;;
56116;SDS011;41989;45.356;20.392;2023-05-23T09:54:36;5.35;;;3.35;;
56116;SDS011;41989;45.356;20.392;2023-05-23T09:57:07;3.67;;;2.90;;
56116;SDS011;41989;45.356;20.392;2023-05-23T09:59:36;5.10;;;3.05;;
56116;SDS011;41989;45.356;20.392;2023-05-23T10:02:03;5.28;;;3.08;;
56116;SDS011;41989;45.356;20.392;2023-05-23T10:04:32;6.05;;;2.88;;
56116;SDS011;41989;45.356;20.392;2023-05-23T10:07:09;5.80;;;2.60;;
56116;SDS011;41989;45.356;20.392;2023-05-23T10:09:40;3.65;;;2.15;;
56116;SDS011;41989;45.356;20.392;2023-05-23T10:14:37;5.37;;;2.67;;
56116;SDS011;41989;45.356;20.392;2023-05-23T10:17:12;5.85;;;2.90;;
56116;SDS011;41989;45.356;20.392;2023-05-23T10:19:46;5.05;;;2.50;;
56116;SDS011;41989;45.356;20.392;2023-05-23T10:22:13;7.57;;;3.22;;
56116;SDS011;41989;45.356;20.392;2023-05-23T10:24:40;4.82;;;2.70;;
56116;SDS011;41989;45.356;20.392;2023-05-23T10:27:07;7.45;;;2.92;;
56116;SDS011;41989;45.356;20.392;2023-05-23T10:29:33;5.85;;;2.97;;
56116;SDS011;41989;45.356;20.392;2023-05-23T10:32:00;5.72;;;3.00;;
56116;SDS011;41989;45.356;20.392;2023-05-23T10:34:53;9.25;;;3.05;;
56116;SDS011;41989;45.356;20.392;2023-05-23T10:37:20;9.15;;;3.25;;
56116;SDS011;41989;45.356;20.392;2023-05-23T10:42:27;8.15;;;3.28;;
56116;SDS011;41989;45.356;20.392;2023-05-23T10:45:18;8.32;;;3.40;;
56116;SDS011;41989;45.356;20.392;2023-05-23T10:47:43;10.07;;;3.72;;
56116;SDS011;41989;45.356;20.392;2023-05-23T10:50:12;6.18;;;3.03;;
56116;SDS011;41989;45.356;20.392;2023-05-23T10:52:41;8.40;;;3.40;;
56116;SDS011;41989;45.356;20.392;2023-05-23T10:55:14;7.88;;;3.33;;
56116;SDS011;41989;45.356;20.392;2023-05-23T10:57:43;6.30;;;3.47;;
56116;SDS011;41989;45.356;20.392;2023-05-23T11:00:13;7.00;;;3.17;;
56116;SDS011;41989;45.356;20.392;2023-05-23T11:02:45;5.63;;;3.20;;
56116;SDS011;41989;45.356;20.392;2023-05-23T11:05:21;5.57;;;3.22;;
56116;SDS011;41989;45.356;20.392;2023-05-23T11:13:18;7.13;;;3.45;;
56116;SDS011;41989;45.356;20.392;2023-05-23T11:15:45;5.07;;;4.13;;
56116;SDS011;41989;45.356;20.392;2023-05-23T11:18:21;6.72;;;3.67;;
56116;SDS011;41989;45.356;20.392;2023-05-23T11:20:48;4.55;;;3.30;;
56116;SDS011;41989;45.356;20.392;2023-05-23T11:23:17;5.57;;;3.13;;
56116;SDS011;41989;45.356;20.392;2023-05-23T11:25:44;5.70;;;3.38;;
56116;SDS011;41989;45.356;20.392;2023-05-23T11:28:12;9.10;;;3.60;;
56116;SDS011;41989;45.356;20.392;2023-05-23T11:30:39;5.30;;;3.15;;
56116;SDS011;41989;45.356;20.392;2023-05-23T11:33:06;4.82;;;3.00;;
56116;SDS011;41989;45.356;20.392;2023-05-23T11:35:34;7.03;;;3.08;;
56116;SDS011;41989;45.356;20.392;2023-05-23T11:38:03;3.92;;;2.88;;
56116;SDS011;41989;45.356;20.392;2023-05-23T11:40:33;6.63;;;2.72;;
56116;SDS011;41989;45.356;20.392;2023-05-23T11:43:01;6.43;;;3.10;;
56116;SDS011;41989;45.356;20.392;2023-05-23T11:45:28;5.43;;;2.88;;
56116;SDS011;41989;45.356;20.392;2023-05-23T11:47:56;5.40;;;3.65;;
56116;SDS011;41989;45.356;20.392;2023-05-23T11:50:22;6.63;;;3.45;;
56116;SDS011;41989;45.356;20.392;2023-05-23T11:52:51;11.75;;;4.35;;
56116;SDS011;41989;45.356;20.392;2023-05-23T11:55:19;4.57;;;2.80;;
56116;SDS011;41989;45.356;20.392;2023-05-23T11:57:46;6.72;;;2.88;;
56116;SDS011;41989;45.356;20.392;2023-05-23T12:00:12;4.90;;;2.67;;
56116;SDS011;41989;45.356;20.392;2023-05-23T12:02:42;5.65;;;3.28;;
56116;SDS011;41989;45.356;20.392;2023-05-23T12:05:09;5.78;;;3.03;;
56116;SDS011;41989;45.356;20.392;2023-05-23T12:07:40;4.90;;;2.65;;
56116;SDS011;41989;45.356;20.392;2023-05-23T12:12:33;6.30;;;2.83;;
56116;SDS011;41989;45.356;20.392;2023-05-23T12:14:59;5.10;;;3.22;;
56116;SDS011;41989;45.356;20.392;2023-05-23T12:17:25;4.43;;;2.80;;
56116;SDS011;41989;45.356;20.392;2023-05-23T12:19:51;4.90;;;2.78;;
56116;SDS011;41989;45.356;20.392;2023-05-23T12:22:23;5.07;;;2.50;;
56116;SDS011;41989;45.356;20.392;2023-05-23T12:24:53;7.88;;;3.17;;
56116;SDS011;41989;45.356;20.392;2023-05-23T12:27:25;4.78;;;2.85;;
56116;SDS011;41989;45.356;20.392;2023-05-23T12:29:54;5.63;;;2.75;;
56116;SDS011;41989;45.356;20.392;2023-05-23T12:32:29;5.32;;;2.78;;
56116;SDS011;41989;45.356;20.392;2023-05-23T12:34:58;7.07;;;2.90;;
56116;SDS011;41989;45.356;20.392;2023-05-23T12:37:24;5.32;;;3.20;;
56116;SDS011;41989;45.356;20.392;2023-05-23T12:39:50;7.43;;;4.47;;
56116;SDS011;41989;45.356;20.392;2023-05-23T12:42:16;5.50;;;2.85;;
56116;SDS011;41989;45.356;20.392;2023-05-23T12:44:42;5.00;;;3.22;;
56116;SDS011;41989;45.356;20.392;2023-05-23T12:47:09;5.47;;;3.13;;
56116;SDS011;41989;45.356;20.392;2023-05-23T12:49:36;5.90;;;2.72;;
56116;SDS011;41989;45.356;20.392;2023-05-23T12:52:02;4.35;;;2.55;;
56116;SDS011;41989;45.356;20.392;2023-05-23T12:54:28;6.95;;;2.88;;
56116;SDS011;41989;45.356;20.392;2023-05-23T12:56:54;4.18;;;2.90;;
56116;SDS011;41989;45.356;20.392;2023-05-23T12:59:21;4.15;;;2.97;;
56116;SDS011;41989;45.356;20.392;2023-05-23T13:01:47;5.72;;;3.03;;
56116;SDS011;41989;45.356;20.392;2023-05-23T13:04:13;6.45;;;2.88;;
56116;SDS011;41989;45.356;20.392;2023-05-23T13:06:39;5.68;;;2.40;;
56116;SDS011;41989;45.356;20.392;2023-05-23T13:09:05;5.32;;;2.67;;
56116;SDS011;41989;45.356;20.392;2023-05-23T13:11:32;6.40;;;2.90;;
56116;SDS011;41989;45.356;20.392;2023-05-23T13:13:58;4.85;;;2.60;;
56116;SDS011;41989;45.356;20.392;2023-05-23T13:16:24;5.53;;;2.55;;
56116;SDS011;41989;45.356;20.392;2023-05-23T13:18:50;6.05;;;3.00;;
56116;SDS011;41989;45.356;20.392;2023-05-23T13:21:17;5.80;;;2.60;;
56116;SDS011;41989;45.356;20.392;2023-05-23T13:23:43;6.85;;;3.03;;
56116;SDS011;41989;45.356;20.392;2023-05-23T13:26:09;6.90;;;3.15;;
56116;SDS011;41989;45.356;20.392;2023-05-23T13:28:36;5.68;;;2.90;;
56116;SDS011;41989;45.356;20.392;2023-05-23T13:31:04;10.73;;;3.00;;
56116;SDS011;41989;45.356;20.392;2023-05-23T13:33:30;4.03;;;2.35;;
56116;SDS011;41989;45.356;20.392;2023-05-23T13:35:57;6.75;;;2.80;;
56116;SDS011;41989;45.356;20.392;2023-05-23T13:38:23;3.90;;;2.58;;
56116;SDS011;41989;45.356;20.392;2023-05-23T13:40:51;4.55;;;3.08;;
56116;SDS011;41989;45.356;20.392;2023-05-23T13:43:18;6.32;;;2.67;;
56116;SDS011;41989;45.356;20.392;2023-05-23T13:45:44;6.38;;;2.65;;
56116;SDS011;41989;45.356;20.392;2023-05-23T13:48:11;5.10;;;2.70;;
56116;SDS011;41989;45.356;20.392;2023-05-23T13:50:37;6.03;;;3.13;;
56116;SDS011;41989;45.356;20.392;2023-05-23T13:53:03;8.50;;;3.35;;
56116;SDS011;41989;45.356;20.392;2023-05-23T13:55:38;6.28;;;3.50;;
56116;SDS011;41989;45.356;20.392;2023-05-23T13:58:07;4.70;;;3.40;;
56116;SDS011;41989;45.356;20.392;2023-05-23T14:00:33;5.60;;;2.90;;
56116;SDS011;41989;45.356;20.392;2023-05-23T14:02:59;4.97;;;2.63;;
56116;SDS011;41989;45.356;20.392;2023-05-23T14:05:25;4.85;;;3.15;;
56116;SDS011;41989;45.356;20.392;2023-05-23T14:07:52;6.18;;;3.30;;
56116;SDS011;41989;45.356;20.392;2023-05-23T14:10:18;5.30;;;2.95;;
56116;SDS011;41989;45.356;20.392;2023-05-23T14:12:45;6.03;;;3.35;;
56116;SDS011;41989;45.356;20.392;2023-05-23T14:15:11;4.32;;;3.28;;
56116;SDS011;41989;45.356;20.392;2023-05-23T14:17:37;5.85;;;2.97;;
56116;SDS011;41989;45.356;20.392;2023-05-23T14:20:04;7.20;;;3.03;;
56116;SDS011;41989;45.356;20.392;2023-05-23T14:22:30;5.35;;;3.10;;
56116;SDS011;41989;45.356;20.392;2023-05-23T14:24:56;7.43;;;3.42;;
56116;SDS011;41989;45.356;20.392;2023-05-23T14:27:23;6.38;;;3.53;;
56116;SDS011;41989;45.356;20.392;2023-05-23T14:29:49;6.82;;;3.45;;
56116;SDS011;41989;45.356;20.392;2023-05-23T14:32:15;6.03;;;2.85;;
56116;SDS011;41989;45.356;20.392;2023-05-23T14:34:47;7.28;;;3.40;;
56116;SDS011;41989;45.356;20.392;2023-05-23T14:37:13;7.35;;;3.17;;
56116;SDS011;41989;45.356;20.392;2023-05-23T14:39:40;4.32;;;2.88;;
56116;SDS011;41989;45.356;20.392;2023-05-23T14:42:06;5.00;;;3.70;;
56116;SDS011;41989;45.356;20.392;2023-05-23T14:44:34;5.32;;;3.78;;